»·PEaware :: N5268J KBFL-KMHV

N5268J :: KBFL-KMHV

FLIGHT INFORMATION

Flight Status: Arrived
Operator: Privately registered:
United States
More flights under this callsign
Pilot: John P. (31881)
Aircraft: BEECH AIRCRAFT BONANZA
(BE36)
More flights by this aircraft type
Origin: KBFL Meadows
United States
Destination: KMHV Mojave
United States
More flights between these airports :: More routes between these airports
Route: BFL MHV
File this flight plan on PilotEdge
Remarks:
Altitude:
(Current/Filed)
7,500ft
Speed:
(Current/Filed)
167kts
Departed: 17-Oct-20 09:49 AM
Arrived: 17-Oct-20 10:21 AM
Distance/Time
Traveled:
50nm/0:32
Distance/Time
To Go:
Arrived

Flight Plot

Page will automatically refresh every two minutes.

Flight plan parsing failed; only flown route is shown


Map Options




Map Legend


Flown Route
Filed Route
Departure Airport
Arrival Airport
Navaid (VOR, NDB)
Fix

Horizontal Profiles

Position Reports

Time Latitude Longitude Heading Altitude Ground
Speed
17-Oct-20 09:05 35.430801 -119.047857 318 485ft 0kts
17-Oct-20 09:06 35.430801 -119.047857 318 485ft 0kts
17-Oct-20 09:07 35.430801 -119.047857 318 485ft 0kts
17-Oct-20 09:08 35.430801 -119.047857 318 485ft 0kts
17-Oct-20 09:09 35.430801 -119.047857 318 485ft 0kts
17-Oct-20 09:10 35.430801 -119.047857 318 485ft 0kts
17-Oct-20 09:11 35.430801 -119.047857 318 485ft 0kts
17-Oct-20 09:12 35.430801 -119.047857 318 485ft 0kts
17-Oct-20 09:13 35.430801 -119.047857 318 485ft 0kts
17-Oct-20 09:14 35.430801 -119.047857 318 485ft 0kts
17-Oct-20 09:15 35.430801 -119.047857 318 485ft 0kts
17-Oct-20 09:16 35.430801 -119.047857 318 485ft 0kts
17-Oct-20 09:17 35.430801 -119.047857 318 485ft 0kts
17-Oct-20 09:18 35.430801 -119.047857 318 485ft 0kts
17-Oct-20 09:19 35.430801 -119.047857 318 485ft 0kts
17-Oct-20 09:20 35.430801 -119.047857 318 485ft 0kts
17-Oct-20 09:21 35.430801 -119.047857 318 485ft 0kts
17-Oct-20 09:22 35.430801 -119.047858 318 485ft 0kts
17-Oct-20 09:23 35.430801 -119.047858 318 485ft 0kts
17-Oct-20 09:24 35.430801 -119.047858 318 485ft 0kts
17-Oct-20 09:25 35.430801 -119.047858 318 485ft 0kts
17-Oct-20 09:26 35.430801 -119.047858 318 485ft 0kts
17-Oct-20 09:27 35.430801 -119.047858 318 485ft 0kts
17-Oct-20 09:28 35.430801 -119.047858 318 485ft 0kts
17-Oct-20 09:29 35.430801 -119.047858 318 485ft 0kts
17-Oct-20 09:30 35.430801 -119.047858 318 485ft 0kts
17-Oct-20 09:31 35.430801 -119.047858 318 485ft 0kts
17-Oct-20 09:32 35.430801 -119.047858 318 485ft 0kts
17-Oct-20 09:33 35.430801 -119.047858 318 485ft 0kts
17-Oct-20 09:34 35.430801 -119.047858 318 485ft 0kts
17-Oct-20 09:35 35.430801 -119.047858 318 485ft 0kts
17-Oct-20 09:36 35.430801 -119.047858 318 485ft 0kts
17-Oct-20 09:37 35.430801 -119.047858 318 485ft 0kts
17-Oct-20 09:38 35.430801 -119.047858 318 485ft 0kts
17-Oct-20 09:39 35.430801 -119.047858 318 485ft 0kts
17-Oct-20 09:40 35.430801 -119.047858 318 485ft 0kts
17-Oct-20 09:41 35.430801 -119.047858 318 485ft 0kts
17-Oct-20 09:42 35.430801 -119.047858 318 485ft 0kts
17-Oct-20 09:43 35.430801 -119.047858 318 485ft 0kts
17-Oct-20 09:44 35.430801 -119.047858 318 485ft 0kts
17-Oct-20 09:45 35.430139 -119.049499 134 482ft 12kts
17-Oct-20 09:46 35.426490 -119.045054 136 472ft 20kts
17-Oct-20 09:47 35.425715 -119.044754 230 471ft 0kts
17-Oct-20 09:48 35.430429 -119.052124 314 525ft 89kts
17-Oct-20 09:49 35.453423 -119.079058 316 1676ft 97kts
17-Oct-20 09:50 35.473810 -119.101681 316 2744ft 100kts
17-Oct-20 09:51 35.494736 -119.125251 316 3748ft 102kts
17-Oct-20 09:52 35.515811 -119.149488 316 4881ft 105kts
17-Oct-20 09:53 35.508865 -119.178252 202 5844ft 110kts
17-Oct-20 09:54 35.479408 -119.190184 200 6788ft 112kts
17-Oct-20 09:55 35.446692 -119.198414 179 7399ft 139kts
17-Oct-20 09:56 35.405696 -119.181579 154 7442ft 166kts
17-Oct-20 09:57 35.364679 -119.153511 140 7446ft 170kts
17-Oct-20 09:58 35.353417 -119.102863 98 7444ft 169kts
17-Oct-20 09:59 35.342355 -119.048231 71 7453ft 167kts
17-Oct-20 10:00 35.356992 -118.994353 69 7460ft 167kts
17-Oct-20 10:01 35.371747 -118.940373 70 7456ft 166kts
17-Oct-20 10:02 35.363370 -118.885666 114 7453ft 168kts
17-Oct-20 10:04 35.342424 -118.834618 117 7454ft 167kts
17-Oct-20 10:05 35.321575 -118.783841 117 7457ft 166kts
17-Oct-20 10:06 35.300704 -118.733048 117 7459ft 167kts
17-Oct-20 10:07 35.279888 -118.682458 117 7458ft 166kts
17-Oct-20 10:08 35.259074 -118.631977 117 7461ft 165kts
17-Oct-20 10:09 35.238382 -118.581859 117 7459ft 165kts
17-Oct-20 10:10 35.217750 -118.531898 117 7459ft 164kts
17-Oct-20 10:11 35.197078 -118.482016 117 7459ft 164kts
17-Oct-20 10:12 35.176394 -118.432101 117 7451ft 162kts
17-Oct-20 10:13 35.156132 -118.383329 118 7453ft 161kts
17-Oct-20 10:14 35.135340 -118.333311 117 7215ft 171kts
17-Oct-20 10:15 35.114092 -118.282342 117 6918ft 171kts
17-Oct-20 10:16 35.092849 -118.231809 118 5915ft 165kts
17-Oct-20 10:17 35.071938 -118.183205 118 5454ft 157kts
17-Oct-20 10:18 35.050854 -118.140866 95 4631ft 144kts
17-Oct-20 10:19 35.050667 -118.102966 351 3979ft 112kts
17-Oct-20 10:20 35.059072 -118.131988 269 3046ft 89kts
17-Oct-20 10:21 35.058422 -118.148766 208 2751ft 0kts
17-Oct-20 10:22 35.057770 -118.149697 240 2752ft 13kts
17-Oct-20 10:22 35.056920 -118.153059 188 2758ft 4kts
17-Oct-20 10:24 35.056916 -118.153060 185 2758ft 0kts
17-Oct-20 10:24 35.056916 -118.153060 185 2758ft 0kts

Navigation Log

Ident Type
Flight plan parsing failed, navigation log unavailable